sensor_id;sensor_type;location;lat;lon;timestamp;pressure;altitude;pressure_sealevel;temperature
72054;BMP280;59918;51.280;7.950;2023-01-15T00:02:01;96382.56;;;7.93
72054;BMP280;59918;51.280;7.950;2023-01-15T00:04:26;96388.44;;;7.82
72054;BMP280;59918;51.280;7.950;2023-01-15T00:06:51;96373.28;;;7.69
72054;BMP280;59918;51.280;7.950;2023-01-15T00:09:16;96378.72;;;7.61
72054;BMP280;59918;51.280;7.950;2023-01-15T00:11:47;96372.47;;;7.57
72054;BMP280;59918;51.280;7.950;2023-01-15T00:14:13;96393.25;;;7.49
72054;BMP280;59918;51.280;7.950;2023-01-15T00:16:38;96402.13;;;7.47
72054;BMP280;59918;51.280;7.950;2023-01-15T00:19:03;96394.22;;;7.37
72054;BMP280;59918;51.280;7.950;2023-01-15T00:21:29;96409.41;;;7.32
72054;BMP280;59918;51.280;7.950;2023-01-15T00:23:57;96393.38;;;7.25
72054;BMP280;59918;51.280;7.950;2023-01-15T00:26:27;96403.13;;;7.17
72054;BMP280;59918;51.280;7.950;2023-01-15T00:28:52;96398.72;;;7.06
72054;BMP280;59918;51.280;7.950;2023-01-15T00:31:21;96395.50;;;6.99
72054;BMP280;59918;51.280;7.950;2023-01-15T00:33:46;96397.75;;;6.89
72054;BMP280;59918;51.280;7.950;2023-01-15T00:36:11;96400.16;;;6.84
72054;BMP280;59918;51.280;7.950;2023-01-15T00:38:36;96401.03;;;6.78
72054;BMP280;59918;51.280;7.950;2023-01-15T00:41:02;96413.22;;;6.76
72054;BMP280;59918;51.280;7.950;2023-01-15T00:43:27;96416.06;;;6.68
72054;BMP280;59918;51.280;7.950;2023-01-15T00:45:52;96416.06;;;6.68
72054;BMP280;59918;51.280;7.950;2023-01-15T00:48:20;96423.16;;;6.66
72054;BMP280;59918;51.280;7.950;2023-01-15T00:50:45;96424.13;;;6.65
72054;BMP280;59918;51.280;7.950;2023-01-15T00:53:11;96423.22;;;6.60
72054;BMP280;59918;51.280;7.950;2023-01-15T00:55:36;96441.94;;;6.54
72054;BMP280;59918;51.280;7.950;2023-01-15T00:58:01;96440.56;;;6.52
72054;BMP280;59918;51.280;7.950;2023-01-15T01:00:26;96418.81;;;6.49
72054;BMP280;59918;51.280;7.950;2023-01-15T01:02:52;96434.00;;;6.44
72054;BMP280;59918;51.280;7.950;2023-01-15T01:05:26;96443.63;;;6.42
72054;BMP280;59918;51.280;7.950;2023-01-15T01:07:51;96438.72;;;6.41
72054;BMP280;59918;51.280;7.950;2023-01-15T01:10:16;96437.59;;;6.37
72054;BMP280;59918;51.280;7.950;2023-01-15T01:12:45;96440.13;;;6.37
72054;BMP280;59918;51.280;7.950;2023-01-15T01:15:10;96449.00;;;6.34
72054;BMP280;59918;51.280;7.950;2023-01-15T01:17:36;96446.09;;;6.31
72054;BMP280;59918;51.280;7.950;2023-01-15T01:20:03;96443.56;;;6.24
72054;BMP280;59918;51.280;7.950;2023-01-15T01:22:29;96453.63;;;6.19
72054;BMP280;59918;51.280;7.950;2023-01-15T01:25:00;96443.63;;;6.18
72054;BMP280;59918;51.280;7.950;2023-01-15T01:27:25;96453.47;;;6.15
72054;BMP280;59918;51.280;7.950;2023-01-15T01:29:50;96463.91;;;6.13
72054;BMP280;59918;51.280;7.950;2023-01-15T01:32:15;96476.28;;;6.10
72054;BMP280;59918;51.280;7.950;2023-01-15T01:34:45;96496.13;;;6.08
72054;BMP280;59918;51.280;7.950;2023-01-15T01:37:11;96519.13;;;6.01
72054;BMP280;59918;51.280;7.950;2023-01-15T01:39:36;96510.94;;;5.93
72054;BMP280;59918;51.280;7.950;2023-01-15T01:42:01;96518.81;;;5.91
72054;BMP280;59918;51.280;7.950;2023-01-15T01:47:00;96540.84;;;5.80
72054;BMP280;59918;51.280;7.950;2023-01-15T01:49:25;96554.78;;;5.71
72054;BMP280;59918;51.280;7.950;2023-01-15T01:52:04;96547.31;;;5.69
72054;BMP280;59918;51.280;7.950;2023-01-15T01:54:35;96547.75;;;5.66
72054;BMP280;59918;51.280;7.950;2023-01-15T01:57:02;96547.16;;;5.58
72054;BMP280;59918;51.280;7.950;2023-01-15T01:59:29;96529.34;;;5.51
72054;BMP280;59918;51.280;7.950;2023-01-15T02:01:57;96510.34;;;5.47
72054;BMP280;59918;51.280;7.950;2023-01-15T02:04:26;96502.94;;;5.40
72054;BMP280;59918;51.280;7.950;2023-01-15T02:06:52;96487.88;;;5.32
72054;BMP280;59918;51.280;7.950;2023-01-15T02:09:21;96473.78;;;5.29
72054;BMP280;59918;51.280;7.950;2023-01-15T02:11:46;96461.22;;;5.28
72054;BMP280;59918;51.280;7.950;2023-01-15T02:20:03;96425.56;;;5.21
72054;BMP280;59918;51.280;7.950;2023-01-15T02:28:36;96422.84;;;5.16
72054;BMP280;59918;51.280;7.950;2023-01-15T02:31:12;96429.53;;;5.17
72054;BMP280;59918;51.280;7.950;2023-01-15T02:33:44;96451.09;;;5.15
72054;BMP280;59918;51.280;7.950;2023-01-15T02:36:14;96447.16;;;5.12
72054;BMP280;59918;51.280;7.950;2023-01-15T02:38:48;96453.25;;;5.11
72054;BMP280;59918;51.280;7.950;2023-01-15T02:41:17;96461.09;;;5.10
72054;BMP280;59918;51.280;7.950;2023-01-15T02:43:50;96444.03;;;5.10
72054;BMP280;59918;51.280;7.950;2023-01-15T02:46:18;96456.78;;;5.10
72054;BMP280;59918;51.280;7.950;2023-01-15T02:48:49;96444.63;;;5.12
72054;BMP280;59918;51.280;7.950;2023-01-15T02:51:24;96428.75;;;5.10
72054;BMP280;59918;51.280;7.950;2023-01-15T02:53:54;96432.88;;;5.11
72054;BMP280;59918;51.280;7.950;2023-01-15T02:56:26;96441.88;;;5.14
72054;BMP280;59918;51.280;7.950;2023-01-15T02:58:59;96430.91;;;5.13
72054;BMP280;59918;51.280;7.950;2023-01-15T03:01:31;96440.09;;;5.14
72054;BMP280;59918;51.280;7.950;2023-01-15T03:04:15;96449.31;;;5.15
72054;BMP280;59918;51.280;7.950;2023-01-15T03:09:24;96452.28;;;5.06
72054;BMP280;59918;51.280;7.950;2023-01-15T03:12:02;96446.97;;;5.14
72054;BMP280;59918;51.280;7.950;2023-01-15T03:17:41;96427.75;;;5.18
72054;BMP280;59918;51.280;7.950;2023-01-15T03:20:25;96411.69;;;5.17
72054;BMP280;59918;51.280;7.950;2023-01-15T03:22:55;96416.59;;;5.19
72054;BMP280;59918;51.280;7.950;2023-01-15T03:25:25;96411.25;;;5.20
72054;BMP280;59918;51.280;7.950;2023-01-15T03:27:53;96403.03;;;5.18
72054;BMP280;59918;51.280;7.950;2023-01-15T03:30:23;96407.75;;;5.21
72054;BMP280;59918;51.280;7.950;2023-01-15T03:32:48;96406.97;;;5.21
72054;BMP280;59918;51.280;7.950;2023-01-15T03:38:13;96440.69;;;5.23
72054;BMP280;59918;51.280;7.950;2023-01-15T03:43:14;96444.16;;;5.28
72054;BMP280;59918;51.280;7.950;2023-01-15T03:45:42;96441.41;;;5.30
72054;BMP280;59918;51.280;7.950;2023-01-15T03:48:21;96438.66;;;5.31
72054;BMP280;59918;51.280;7.950;2023-01-15T03:51:08;96443.75;;;5.31
72054;BMP280;59918;51.280;7.950;2023-01-15T03:53:48;96428.47;;;5.31
72054;BMP280;59918;51.280;7.950;2023-01-15T03:56:19;96417.09;;;5.34
72054;BMP280;59918;51.280;7.950;2023-01-15T03:59:06;96411.22;;;5.33
72054;BMP280;59918;51.280;7.950;2023-01-15T04:01:39;96407.09;;;5.32
72054;BMP280;59918;51.280;7.950;2023-01-15T04:04:06;96407.09;;;5.32
72054;BMP280;59918;51.280;7.950;2023-01-15T04:06:37;96398.47;;;5.33
72054;BMP280;59918;51.280;7.950;2023-01-15T04:09:03;96400.47;;;5.25
72054;BMP280;59918;51.280;7.950;2023-01-15T04:11:30;96405.72;;;5.30
72054;BMP280;59918;51.280;7.950;2023-01-15T04:13:55;96394.34;;;5.32
72054;BMP280;59918;51.280;7.950;2023-01-15T04:16:28;96391.78;;;5.32
72054;BMP280;59918;51.280;7.950;2023-01-15T04:18:54;96391.78;;;5.32
72054;BMP280;59918;51.280;7.950;2023-01-15T04:21:20;96390.03;;;5.33
72054;BMP280;59918;51.280;7.950;2023-01-15T04:23:52;96382.59;;;5.31
72054;BMP280;59918;51.280;7.950;2023-01-15T04:26:17;96395.34;;;5.31
72054;BMP280;59918;51.280;7.950;2023-01-15T04:28:42;96397.88;;;5.31
72054;BMP280;59918;51.280;7.950;2023-01-15T04:31:08;96387.69;;;5.31
72054;BMP280;59918;51.280;7.950;2023-01-15T04:33:36;96389.25;;;5.32
72054;BMP280;59918;51.280;7.950;2023-01-15T04:36:02;96396.31;;;5.30
72054;BMP280;59918;51.280;7.950;2023-01-15T04:38:27;96390.44;;;5.30
72054;BMP280;59918;51.280;7.950;2023-01-15T04:40:53;96382.22;;;5.28
72054;BMP280;59918;51.280;7.950;2023-01-15T04:43:18;96380.66;;;5.27
72054;BMP280;59918;51.280;7.950;2023-01-15T04:45:49;96376.75;;;5.24
72054;BMP280;59918;51.280;7.950;2023-01-15T04:48:14;96399.91;;;5.23
72054;BMP280;59918;51.280;7.950;2023-01-15T04:50:40;96395.97;;;5.20
72054;BMP280;59918;51.280;7.950;2023-01-15T04:53:05;96406.38;;;5.19
72054;BMP280;59918;51.280;7.950;2023-01-15T04:55:31;96395.38;;;5.18
72054;BMP280;59918;51.280;7.950;2023-01-15T04:58:05;96411.25;;;5.20
72054;BMP280;59918;51.280;7.950;2023-01-15T05:00:30;96415.38;;;5.21
72054;BMP280;59918;51.280;7.950;2023-01-15T05:02:55;96405.78;;;5.23
72054;BMP280;59918;51.280;7.950;2023-01-15T05:05:23;96408.91;;;5.25
72054;BMP280;59918;51.280;7.950;2023-01-15T05:07:49;96424.19;;;5.25
72054;BMP280;59918;51.280;7.950;2023-01-15T05:10:14;96425.38;;;5.23
72054;BMP280;59918;51.280;7.950;2023-01-15T05:12:39;96411.06;;;5.22
72054;BMP280;59918;51.280;7.950;2023-01-15T05:15:05;96405.19;;;5.21
72054;BMP280;59918;51.280;7.950;2023-01-15T05:17:36;96415.97;;;5.23
72054;BMP280;59918;51.280;7.950;2023-01-15T05:20:02;96420.88;;;5.18
72054;BMP280;59918;51.280;7.950;2023-01-15T05:22:28;96441.84;;;5.20
72054;BMP280;59918;51.280;7.950;2023-01-15T05:24:53;96412.25;;;5.19
72054;BMP280;59918;51.280;7.950;2023-01-15T05:27:18;96415.78;;;5.18
72054;BMP280;59918;51.280;7.950;2023-01-15T05:29:43;96432.84;;;5.18
72054;BMP280;59918;51.280;7.950;2023-01-15T05:32:14;96413.22;;;5.18
72054;BMP280;59918;51.280;7.950;2023-01-15T05:34:40;96421.09;;;5.17
72054;BMP280;59918;51.280;7.950;2023-01-15T05:37:05;96443.03;;;5.18
72054;BMP280;59918;51.280;7.950;2023-01-15T05:39:30;96437.94;;;5.18
72054;BMP280;59918;51.280;7.950;2023-01-15T05:41:55;96445.38;;;5.19
72054;BMP280;59918;51.280;7.950;2023-01-15T05:44:28;96443.22;;;5.23
72054;BMP280;59918;51.280;7.950;2023-01-15T05:46:56;96435.78;;;5.21
72054;BMP280;59918;51.280;7.950;2023-01-15T05:49:26;96432.03;;;5.24
72054;BMP280;59918;51.280;7.950;2023-01-15T05:51:52;96444.56;;;5.25
72054;BMP280;59918;51.280;7.950;2023-01-15T05:54:29;96433.38;;;5.26
72054;BMP280;59918;51.280;7.950;2023-01-15T05:56:55;96435.53;;;5.29
72054;BMP280;59918;51.280;7.950;2023-01-15T05:59:24;96431.22;;;5.30
72054;BMP280;59918;51.280;7.950;2023-01-15T06:01:51;96421.78;;;5.30
72054;BMP280;59918;51.280;7.950;2023-01-15T06:04:16;96416.50;;;5.32
72054;BMP280;59918;51.280;7.950;2023-01-15T06:06:42;96425.34;;;5.29
72054;BMP280;59918;51.280;7.950;2023-01-15T06:09:08;96425.34;;;5.29
72054;BMP280;59918;51.280;7.950;2023-01-15T06:11:39;96425.34;;;5.29
72054;BMP280;59918;51.280;7.950;2023-01-15T06:14:05;96434.75;;;5.29
72054;BMP280;59918;51.280;7.950;2023-01-15T06:16:31;96422.03;;;5.29
72054;BMP280;59918;51.280;7.950;2023-01-15T06:19:04;96427.69;;;5.31
72054;BMP280;59918;51.280;7.950;2023-01-15T06:21:30;96426.31;;;5.28
72054;BMP280;59918;51.280;7.950;2023-01-15T06:23:56;96428.88;;;5.28
72054;BMP280;59918;51.280;7.950;2023-01-15T06:26:27;96428.28;;;5.26
72054;BMP280;59918;51.280;7.950;2023-01-15T06:28:52;96425.16;;;5.24
72054;BMP280;59918;51.280;7.950;2023-01-15T06:31:20;96429.28;;;5.25
72054;BMP280;59918;51.280;7.950;2023-01-15T06:33:51;96435.94;;;5.26
72054;BMP280;59918;51.280;7.950;2023-01-15T06:36:20;96435.34;;;5.24
72054;BMP280;59918;51.280;7.950;2023-01-15T06:38:49;96439.47;;;5.25
72054;BMP280;59918;51.280;7.950;2023-01-15T06:41:37;96428.50;;;5.25
72054;BMP280;59918;51.280;7.950;2023-01-15T06:44:02;96453.19;;;5.24
72054;BMP280;59918;51.280;7.950;2023-01-15T06:46:28;96449.66;;;5.25
72054;BMP280;59918;51.280;7.950;2023-01-15T06:48:53;96450.44;;;5.26
72054;BMP280;59918;51.280;7.950;2023-01-15T06:51:18;96454.34;;;5.28
72054;BMP280;59918;51.280;7.950;2023-01-15T06:53:44;96457.47;;;5.30
72054;BMP280;59918;51.280;7.950;2023-01-15T06:56:13;96457.09;;;5.33
72054;BMP280;59918;51.280;7.950;2023-01-15T06:58:39;96475.13;;;5.32
72054;BMP280;59918;51.280;7.950;2023-01-15T07:01:14;96474.94;;;5.33
72054;BMP280;59918;51.280;7.950;2023-01-15T07:03:39;96479.84;;;5.35
72054;BMP280;59918;51.280;7.950;2023-01-15T07:06:12;96470.78;;;5.32
72054;BMP280;59918;51.280;7.950;2023-01-15T07:08:38;96459.84;;;5.32
72054;BMP280;59918;51.280;7.950;2023-01-15T07:11:05;96472.78;;;5.30
72054;BMP280;59918;51.280;7.950;2023-01-15T07:13:30;96471.22;;;5.29
72054;BMP280;59918;51.280;7.950;2023-01-15T07:16:00;96460.03;;;5.30
72054;BMP280;59918;51.280;7.950;2023-01-15T07:18:27;96460.25;;;5.29
72054;BMP280;59918;51.280;7.950;2023-01-15T07:21:02;96459.44;;;5.28
72054;BMP280;59918;51.280;7.950;2023-01-15T07:23:28;96445.16;;;5.27
72054;BMP280;59918;51.280;7.950;2023-01-15T07:25:53;96461.84;;;5.23
72054;BMP280;59918;51.280;7.950;2023-01-15T07:28:20;96458.13;;;5.19
72054;BMP280;59918;51.280;7.950;2023-01-15T07:30:49;96472.06;;;5.17
72054;BMP280;59918;51.280;7.950;2023-01-15T07:33:14;96461.69;;;5.12
72054;BMP280;59918;51.280;7.950;2023-01-15T07:35:39;96469.94;;;5.07
72054;BMP280;59918;51.280;7.950;2023-01-15T07:38:04;96472.47;;;5.07
72054;BMP280;59918;51.280;7.950;2023-01-15T07:40:30;96464.25;;;5.06
72054;BMP280;59918;51.280;7.950;2023-01-15T07:42:55;96467.97;;;5.03
72054;BMP280;59918;51.280;7.950;2023-01-15T07:45:20;96476.59;;;5.02
72054;BMP280;59918;51.280;7.950;2023-01-15T07:47:52;96481.50;;;5.04
72054;BMP280;59918;51.280;7.950;2023-01-15T07:50:19;96478.97;;;4.91
72054;BMP280;59918;51.280;7.950;2023-01-15T07:52:54;96476.63;;;4.96
72054;BMP280;59918;51.280;7.950;2023-01-15T07:55:20;96483.84;;;4.99
72054;BMP280;59918;51.280;7.950;2023-01-15T07:57:49;96478.56;;;5.00
72054;BMP280;59918;51.280;7.950;2023-01-15T08:00:19;96477.22;;;4.98
72054;BMP280;59918;51.280;7.950;2023-01-15T08:02:44;96495.03;;;4.98
72054;BMP280;59918;51.280;7.950;2023-01-15T08:05:16;96492.28;;;4.99
72054;BMP280;59918;51.280;7.950;2023-01-15T08:07:42;96478.00;;;4.98
72054;BMP280;59918;51.280;7.950;2023-01-15T08:10:15;96489.72;;;4.99
72054;BMP280;59918;51.280;7.950;2023-01-15T08:12:40;96500.72;;;5.00
72054;BMP280;59918;51.280;7.950;2023-01-15T08:15:07;96493.66;;;5.02
72054;BMP280;59918;51.280;7.950;2023-01-15T08:17:36;96499.34;;;5.04
72054;BMP280;59918;51.280;7.950;2023-01-15T08:20:04;96505.97;;;5.05
72054;BMP280;59918;51.280;7.950;2023-01-15T08:22:32;96499.72;;;5.07
72054;BMP280;59918;51.280;7.950;2023-01-15T08:25:00;96494.41;;;5.08
72054;BMP280;59918;51.280;7.950;2023-01-15T08:27:25;96505.41;;;5.09
72054;BMP280;59918;51.280;7.950;2023-01-15T08:29:51;96503.22;;;5.12
72054;BMP280;59918;51.280;7.950;2023-01-15T08:32:17;96510.47;;;5.15
72054;BMP280;59918;51.280;7.950;2023-01-15T08:34:42;96511.63;;;5.19
72054;BMP280;59918;51.280;7.950;2023-01-15T08:37:07;96526.50;;;5.22
72054;BMP280;59918;51.280;7.950;2023-01-15T08:39:39;96537.88;;;5.26
72054;BMP280;59918;51.280;7.950;2023-01-15T08:42:04;96532.00;;;5.26
72054;BMP280;59918;51.280;7.950;2023-01-15T08:44:29;96528.84;;;5.30
72054;BMP280;59918;51.280;7.950;2023-01-15T08:46:54;96535.50;;;5.31
72054;BMP280;59918;51.280;7.950;2023-01-15T08:49:20;96527.84;;;5.38
72054;BMP280;59918;51.280;7.950;2023-01-15T08:51:48;96540.97;;;5.41
72054;BMP280;59918;51.280;7.950;2023-01-15T08:54:14;96534.53;;;5.39
72054;BMP280;59918;51.280;7.950;2023-01-15T08:56:40;96534.53;;;5.39
72054;BMP280;59918;51.280;7.950;2023-01-15T08:59:06;96538.81;;;5.38
72054;BMP280;59918;51.280;7.950;2023-01-15T09:01:31;96543.91;;;5.38
72054;BMP280;59918;51.280;7.950;2023-01-15T09:04:04;96538.81;;;5.38
72054;BMP280;59918;51.280;7.950;2023-01-15T09:06:29;96551.97;;;5.35
72054;BMP280;59918;51.280;7.950;2023-01-15T09:08:54;96551.56;;;5.38
72054;BMP280;59918;51.280;7.950;2023-01-15T09:11:19;96551.56;;;5.38
72054;BMP280;59918;51.280;7.950;2023-01-15T09:13:45;96566.84;;;5.38
72054;BMP280;59918;51.280;7.950;2023-01-15T09:16:12;96562.91;;;5.42
72054;BMP280;59918;51.280;7.950;2023-01-15T09:18:38;96562.53;;;5.45
72054;BMP280;59918;51.280;7.950;2023-01-15T09:21:04;96564.47;;;5.49
72054;BMP280;59918;51.280;7.950;2023-01-15T09:23:29;96561.91;;;5.49
72054;BMP280;59918;51.280;7.950;2023-01-15T09:25:58;96558.59;;;5.49
72054;BMP280;59918;51.280;7.950;2023-01-15T09:28:27;96578.22;;;5.48
72054;BMP280;59918;51.280;7.950;2023-01-15T09:30:53;96578.41;;;5.47
72054;BMP280;59918;51.280;7.950;2023-01-15T09:33:18;96575.84;;;5.47
72054;BMP280;59918;51.280;7.950;2023-01-15T09:35:44;96578.59;;;5.45
72054;BMP280;59918;51.280;7.950;2023-01-15T09:38:14;96583.91;;;5.50
72054;BMP280;59918;51.280;7.950;2023-01-15T09:41:06;96587.59;;;5.48
72054;BMP280;59918;51.280;7.950;2023-01-15T09:43:51;96586.06;;;5.47
72054;BMP280;59918;51.280;7.950;2023-01-15T09:47:08;96577.78;;;5.51
72054;BMP280;59918;51.280;7.950;2023-01-15T09:57:16;96586.56;;;5.62
72054;BMP280;59918;51.280;7.950;2023-01-15T09:59:45;96582.63;;;5.66
72054;BMP280;59918;51.280;7.950;2023-01-15T10:02:42;96579.94;;;5.61
72054;BMP280;59918;51.280;7.950;2023-01-15T10:05:20;96586.22;;;5.52
72054;BMP280;59918;51.280;7.950;2023-01-15T10:08:03;96575.28;;;5.45
72054;BMP280;59918;51.280;7.950;2023-01-15T10:10:34;96592.91;;;5.40
72054;BMP280;59918;51.280;7.950;2023-01-15T10:13:30;96558.84;;;5.35
72054;BMP280;59918;51.280;7.950;2023-01-15T10:16:02;96561.72;;;5.51
72054;BMP280;59918;51.280;7.950;2023-01-15T10:18:28;96576.31;;;5.87
72054;BMP280;59918;51.280;7.950;2023-01-15T10:26:16;96571.63;;;5.84
72054;BMP280;59918;51.280;7.950;2023-01-15T10:31:21;96574.97;;;5.79
72054;BMP280;59918;51.280;7.950;2023-01-15T10:36:52;96557.31;;;5.71
72054;BMP280;59918;51.280;7.950;2023-01-15T10:45:28;96553.69;;;6.34
72054;BMP280;59918;51.280;7.950;2023-01-15T10:48:33;96546.53;;;6.67
72054;BMP280;59918;51.280;7.950;2023-01-15T10:51:12;96574.44;;;6.68
72054;BMP280;59918;51.280;7.950;2023-01-15T10:53:46;96577.94;;;6.43
72054;BMP280;59918;51.280;7.950;2023-01-15T10:59:07;96580.50;;;6.43
72054;BMP280;59918;51.280;7.950;2023-01-15T11:01:39;96589.19;;;6.36
72054;BMP280;59918;51.280;7.950;2023-01-15T11:04:06;96592.94;;;6.33
72054;BMP280;59918;51.280;7.950;2023-01-15T11:06:32;96593.56;;;6.29
72054;BMP280;59918;51.280;7.950;2023-01-15T11:09:04;96578.25;;;6.29
72054;BMP280;59918;51.280;7.950;2023-01-15T11:11:40;96596.69;;;6.31
72054;BMP280;59918;51.280;7.950;2023-01-15T11:14:07;96578.56;;;6.39
72054;BMP280;59918;51.280;7.950;2023-01-15T11:16:32;96575.44;;;6.37
72054;BMP280;59918;51.280;7.950;2023-01-15T11:19:04;96568.56;;;6.37
72054;BMP280;59918;51.280;7.950;2023-01-15T11:21:30;96592.28;;;6.44
72054;BMP280;59918;51.280;7.950;2023-01-15T11:23:57;96563.84;;;6.41
72054;BMP280;59918;51.280;7.950;2023-01-15T11:26:27;96574.81;;;6.41
72054;BMP280;59918;51.280;7.950;2023-01-15T11:28:54;96558.41;;;6.31
72054;BMP280;59918;51.280;7.950;2023-01-15T11:31:20;96572.34;;;6.28
72054;BMP280;59918;51.280;7.950;2023-01-15T11:36:30;96559.69;;;6.40
72054;BMP280;59918;51.280;7.950;2023-01-15T11:38:56;96564.72;;;6.53
72054;BMP280;59918;51.280;7.950;2023-01-15T11:41:27;96554.06;;;6.62
72054;BMP280;59918;51.280;7.950;2023-01-15T11:43:54;96554.06;;;6.62
72054;BMP280;59918;51.280;7.950;2023-01-15T11:46:31;96555.59;;;6.63
72054;BMP280;59918;51.280;7.950;2023-01-15T11:48:56;96564.53;;;6.54
72054;BMP280;59918;51.280;7.950;2023-01-15T11:51:21;96553.38;;;6.49
72054;BMP280;59918;51.280;7.950;2023-01-15T11:53:52;96553.38;;;6.49
72054;BMP280;59918;51.280;7.950;2023-01-15T11:56:21;96565.56;;;6.47
72054;BMP280;59918;51.280;7.950;2023-01-15T11:59:08;96561.59;;;6.51
72054;BMP280;59918;51.280;7.950;2023-01-15T12:01:55;96566.28;;;6.53
72054;BMP280;59918;51.280;7.950;2023-01-15T12:04:25;96581.25;;;6.50
72054;BMP280;59918;51.280;7.950;2023-01-15T12:06:54;96569.09;;;6.46
72054;BMP280;59918;51.280;7.950;2023-01-15T12:09:26;96564.97;;;6.45
72054;BMP280;59918;51.280;7.950;2023-01-15T12:15:00;96572.47;;;6.40
72054;BMP280;59918;51.280;7.950;2023-01-15T12:26:01;96555.66;;;6.32
72054;BMP280;59918;51.280;7.950;2023-01-15T12:28:32;96572.91;;;6.37
72054;BMP280;59918;51.280;7.950;2023-01-15T12:31:07;96565.63;;;6.40
72054;BMP280;59918;51.280;7.950;2023-01-15T12:39:00;96564.34;;;6.25
72054;BMP280;59918;51.280;7.950;2023-01-15T12:41:36;96552.53;;;6.24
72054;BMP280;59918;51.280;7.950;2023-01-15T12:44:08;96551.56;;;6.25
72054;BMP280;59918;51.280;7.950;2023-01-15T12:46:36;96552.34;;;6.25
72054;BMP280;59918;51.280;7.950;2023-01-15T12:49:31;96558.41;;;6.31
72054;BMP280;59918;51.280;7.950;2023-01-15T12:52:06;96545.72;;;6.49
72054;BMP280;59918;51.280;7.950;2023-01-15T12:54:50;96556.06;;;6.53
72054;BMP280;59918;51.280;7.950;2023-01-15T12:57:33;96542.13;;;6.56
72054;BMP280;59918;51.280;7.950;2023-01-15T13:05:32;96526.56;;;6.57
72054;BMP280;59918;51.280;7.950;2023-01-15T13:10:41;96542.84;;;6.39
72054;BMP280;59918;51.280;7.950;2023-01-15T13:21:19;96567.63;;;6.32
72054;BMP280;59918;51.280;7.950;2023-01-15T13:23:59;96562.69;;;6.37
72054;BMP280;59918;51.280;7.950;2023-01-15T13:34:22;96558.84;;;6.52
72054;BMP280;59918;51.280;7.950;2023-01-15T13:36:59;96578.91;;;6.49
72054;BMP280;59918;51.280;7.950;2023-01-15T13:39:41;96558.09;;;6.45
72054;BMP280;59918;51.280;7.950;2023-01-15T13:42:22;96576.41;;;6.42
72054;BMP280;59918;51.280;7.950;2023-01-15T13:47:48;96574.81;;;6.41
72054;BMP280;59918;51.280;7.950;2023-01-15T13:50:30;96574.03;;;6.41
72054;BMP280;59918;51.280;7.950;2023-01-15T13:56:13;96569.34;;;6.38
72054;BMP280;59918;51.280;7.950;2023-01-15T13:58:59;96568.56;;;6.37
72054;BMP280;59918;51.280;7.950;2023-01-15T14:01:33;96583.25;;;6.42
72054;BMP280;59918;51.280;7.950;2023-01-15T14:04:06;96569.09;;;6.46
72054;BMP280;59918;51.280;7.950;2023-01-15T14:06:43;96577.75;;;6.45
72054;BMP280;59918;51.280;7.950;2023-01-15T14:09:30;96577.38;;;6.41
72054;BMP280;59918;51.280;7.950;2023-01-15T14:21:14;96582.53;;;6.35
72054;BMP280;59918;51.280;7.950;2023-01-15T14:26:44;96574.50;;;6.31
72054;BMP280;59918;51.280;7.950;2023-01-15T14:34:34;96577.81;;;6.32
72054;BMP280;59918;51.280;7.950;2023-01-15T14:37:20;96585.47;;;6.32
72054;BMP280;59918;51.280;7.950;2023-01-15T14:44:55;96595.13;;;6.30
72054;BMP280;59918;51.280;7.950;2023-01-15T14:47:33;96606.34;;;6.29
72054;BMP280;59918;51.280;7.950;2023-01-15T14:52:57;96593.19;;;6.25
72054;BMP280;59918;51.280;7.950;2023-01-15T14:55:23;96597.53;;;6.25
72054;BMP280;59918;51.280;7.950;2023-01-15T14:58:02;96606.16;;;6.24
72054;BMP280;59918;51.280;7.950;2023-01-15T15:00:34;96637.19;;;6.21
72054;BMP280;59918;51.280;7.950;2023-01-15T15:03:00;96604.25;;;6.13
72054;BMP280;59918;51.280;7.950;2023-01-15T15:05:30;96613.06;;;6.17
72054;BMP280;59918;51.280;7.950;2023-01-15T15:07:57;96609.56;;;6.12
72054;BMP280;59918;51.280;7.950;2023-01-15T15:10:26;96609.59;;;6.05
72054;BMP280;59918;51.280;7.950;2023-01-15T15:13:21;96633.56;;;5.98
72054;BMP280;59918;51.280;7.950;2023-01-15T15:16:06;96638.88;;;5.96
72054;BMP280;59918;51.280;7.950;2023-01-15T15:18:38;96614.34;;;5.95
72054;BMP280;59918;51.280;7.950;2023-01-15T15:21:22;96624.34;;;5.97
72054;BMP280;59918;51.280;7.950;2023-01-15T15:24:14;96617.66;;;6.02
72054;BMP280;59918;51.280;7.950;2023-01-15T15:26:40;96631.41;;;6.01
72054;BMP280;59918;51.280;7.950;2023-01-15T15:31:44;96633.91;;;6.08
72054;BMP280;59918;51.280;7.950;2023-01-15T15:36:56;96614.28;;;6.08
72054;BMP280;59918;51.280;7.950;2023-01-15T15:39:41;96611.34;;;6.11
72054;BMP280;59918;51.280;7.950;2023-01-15T15:42:25;96612.13;;;6.12
72054;BMP280;59918;51.280;7.950;2023-01-15T15:44:56;96621.13;;;6.14
72054;BMP280;59918;51.280;7.950;2023-01-15T15:47:36;96610.91;;;6.14
72054;BMP280;59918;51.280;7.950;2023-01-15T15:50:05;96619.34;;;6.15
72054;BMP280;59918;51.280;7.950;2023-01-15T15:52:33;96623.69;;;6.14
72054;BMP280;59918;51.280;7.950;2023-01-15T15:55:00;96631.75;;;6.11
72054;BMP280;59918;51.280;7.950;2023-01-15T15:57:29;96630.22;;;6.04
72054;BMP280;59918;51.280;7.950;2023-01-15T15:59:54;96622.97;;;5.94
72054;BMP280;59918;51.280;7.950;2023-01-15T16:02:23;96622.03;;;5.89
72054;BMP280;59918;51.280;7.950;2023-01-15T16:04:58;96627.72;;;5.84
72054;BMP280;59918;51.280;7.950;2023-01-15T16:07:30;96616.94;;;5.82
72054;BMP280;59918;51.280;7.950;2023-01-15T16:10:59;96615.59;;;5.80
72054;BMP280;59918;51.280;7.950;2023-01-15T16:12:57;96606.97;;;5.75
72054;BMP280;59918;51.280;7.950;2023-01-15T16:15:34;96600.50;;;5.79
72054;BMP280;59918;51.280;7.950;2023-01-15T16:18:05;96607.16;;;5.80
72054;BMP280;59918;51.280;7.950;2023-01-15T16:20:31;96619.69;;;5.81
72054;BMP280;59918;51.280;7.950;2023-01-15T16:23:04;96605.56;;;5.85
72054;BMP280;59918;51.280;7.950;2023-01-15T16:25:40;96599.28;;;5.87
72054;BMP280;59918;51.280;7.950;2023-01-15T16:28:06;96598.69;;;5.85
72054;BMP280;59918;51.280;7.950;2023-01-15T16:30:57;96598.28;;;5.88
72054;BMP280;59918;51.280;7.950;2023-01-15T16:33:22;96620.84;;;5.91
72054;BMP280;59918;51.280;7.950;2023-01-15T16:35:55;96614.56;;;5.94
72054;BMP280;59918;51.280;7.950;2023-01-15T16:38:21;96615.91;;;5.96
72054;BMP280;59918;51.280;7.950;2023-01-15T16:40:46;96611.38;;;5.98
72054;BMP280;59918;51.280;7.950;2023-01-15T16:43:23;96629.25;;;5.98
72054;BMP280;59918;51.280;7.950;2023-01-15T16:46:15;96618.88;;;5.93
72054;BMP280;59918;51.280;7.950;2023-01-15T16:48:40;96605.91;;;5.95
72054;BMP280;59918;51.280;7.950;2023-01-15T16:53:58;96615.34;;;5.94
72054;BMP280;59918;51.280;7.950;2023-01-15T16:59:17;96622.38;;;5.99